Terminal Aerodrome Forecast
Issued by NWS Milwaukee/Sullivan, WI

Home | Current Version | Previous Version | Text Only | Print | Product List | Glossary On
Versions: 1 2 3 4 5 6 7 8 9 10 11 12 13 14 15 16 17 18 19 20 21 22 23 24 25 26 27 28 29 30 31 32 33 34 35 36 37 38 39 40 41 42
353
FTUS43 KMKX 041735
TAFMSN
TAF
KMSN 041735Z 0418/0518 16010KT 3/4SM -SN OVC008
     FM042100 18008KT 1 1/2SM -SN OVC010
     FM042300 20007KT P6SM OVC010
     FM050700 25006KT P6SM BKN035
     FM051400 20005KT P6SM BKN090=

USA.gov is the U.S. government's official web portal to all federal, state and local government web resources and services.